This demonstration page uses our WeatherBlox Daily Observations layout. Learn more.

Left ArrowRight Arrow

Hourly Observations for June 17, 2015

Temp ( °F °C ) Dew Point ( °F °C ) Humidity (%) Winds ( mph kmh ) Pressure ( in mb ) Visibility ( mi km ) Precip ( " mm )
5:54 am 05:54 Clear 68 20 66 18.9 93 93 SSE 8 13 29.89 1012 9 14.48406 N/A
6:54 am 06:54 Mostly Cloudy 69 20.6 67 19.4 93 93 S 7 11 29.9 1013 8 12.87472 N/A
7:19 am 07:19 Mostly Cloudy 69 20.6 67 19.4 93 93 N 8 13 29.94 1014 9 14.48406 N/A
7:54 am 07:54 Mostly Cloudy 69 20.6 67 19.4 93 93 SSW 7 11 29.96 1015 9 14.48406 N/A
8:54 am 08:54 Sunny 74 23.3 67 19.4 79 79 W 10 17 29.97 1015 10 16.0934 N/A
9:54 am 09:54 Sunny 78 25.6 63 17.2 60 60 NW 10 17 29.98 1015 10 16.0934 N/A
10:54 am 10:54 Sunny 80 26.7 61 16.1 52 52 NW 12 19 29.97 1015 10 16.0934 N/A
11:54 am 11:54 Sunny 82 27.8 60 15.6 47 47 WNW 8 13 29.97 1015 10 16.0934 N/A
12:54 pm 12:54 Sunny 84 28.9 61 16.1 46 46 W 6 9 29.97 1015 10 16.0934 N/A
1:54 pm 13:54 Sunny 85 29.4 60 15.6 43 43 N N/A 29.96 1015 10 16.0934 N/A
2:54 pm 14:54 Sunny 86 30 60 15.6 42 42 VRB 3 6 29.95 1014 10 16.0934 N/A
3:54 pm 15:54 Sunny 86 30 61 16.1 43 43 N N/A 29.94 1014 10 16.0934 N/A
4:54 pm 16:54 Sunny 88 31.1 63 17.2 43 43 VRB 3 6 29.92 1013 10 16.0934 N/A
5:54 pm 17:54 Sunny 87 30.6 62 16.7 43 43 NNW 6 9 29.91 1013 10 16.0934 N/A
6:54 pm 18:54 Sunny 85 29.4 62 16.7 46 46 W 6 9 29.91 1013 10 16.0934 N/A
7:54 pm 19:54 Sunny 84 28.9 62 16.7 48 48 W 5 7 29.92 1013 10 16.0934 N/A
8:54 pm 20:54 Sunny 82 27.8 63 17.2 53 53 N N/A 29.91 1013 10 16.0934 N/A
9:54 pm 21:54 Mostly Cloudy 77 25 68 20 74 74 NNE 6 9 29.93 1014 10 16.0934 N/A
10:54 pm 22:54 Clear 73 22.8 66 18.9 79 79 NNE 7 11 29.96 1015 10 16.0934 N/A
11:54 pm 23:54 Clear 71 21.7 64 17.8 79 79 NNE 3 6 29.95 1014 10 16.0934 N/A

Powered by AerisWeather